createdAt,value
2023-05-15T00:02:24.879Z,6.05
2023-05-15T00:04:51.732Z,6.05
2023-05-15T00:07:18.755Z,5.95
2023-05-15T00:09:45.590Z,6.32
2023-05-15T00:12:12.341Z,6.40
2023-05-15T00:14:39.196Z,6.07
2023-05-15T00:17:06.382Z,6.20
2023-05-15T00:19:33.204Z,6.30
2023-05-15T00:21:59.935Z,7.00
2023-05-15T00:24:26.686Z,6.30
2023-05-15T00:26:53.462Z,6.65
2023-05-15T00:29:20.309Z,6.50
2023-05-15T00:31:47.184Z,6.38
2023-05-15T00:34:13.946Z,6.68
2023-05-15T00:36:40.764Z,7.07
2023-05-15T00:39:07.579Z,6.50
2023-05-15T00:41:35.519Z,6.53
2023-05-15T00:44:03.062Z,7.50
2023-05-15T00:46:32.516Z,6.32
2023-05-15T00:49:00.588Z,7.20
2023-05-15T00:51:27.416Z,6.97
2023-05-15T00:53:54.994Z,8.02
2023-05-15T00:56:22.326Z,7.00
2023-05-15T00:58:53.970Z,6.47
2023-05-15T01:01:20.822Z,7.05
2023-05-15T01:03:47.817Z,7.07
2023-05-15T01:06:14.652Z,7.22
2023-05-15T01:08:46.875Z,7.20
2023-05-15T01:11:15.626Z,7.15
2023-05-15T01:13:42.942Z,7.15
2023-05-15T01:16:10.859Z,6.65
2023-05-15T01:21:36.793Z,6.33
2023-05-15T01:24:15.686Z,6.75
2023-05-15T01:27:21.561Z,7.40
2023-05-15T01:30:16.647Z,7.40
2023-05-15T01:33:06.979Z,6.35
2023-05-15T01:35:55.071Z,6.82
2023-05-15T01:38:33.498Z,7.10
2023-05-15T01:41:23.120Z,7.13
2023-05-15T01:43:56.909Z,6.72
2023-05-15T01:46:25.610Z,6.65
2023-05-15T01:48:53.459Z,6.80
2023-05-15T01:51:22.346Z,6.70
2023-05-15T01:53:50.461Z,6.88
2023-05-15T01:56:19.927Z,6.80
2023-05-15T01:58:48.244Z,6.72
2023-05-15T02:01:17.807Z,7.25
2023-05-15T02:03:46.204Z,8.70
2023-05-15T02:06:14.168Z,8.15
2023-05-15T02:08:42.914Z,8.85
2023-05-15T02:11:10.352Z,9.40
2023-05-15T02:13:38.286Z,7.80
2023-05-15T02:16:05.485Z,8.45
2023-05-15T02:18:32.473Z,7.85
2023-05-15T02:21:01.122Z,9.05
2023-05-15T02:23:27.868Z,8.30
2023-05-15T02:26:16.727Z,8.35
2023-05-15T02:28:50.282Z,8.20
2023-05-15T02:31:40.956Z,8.60
2023-05-15T02:34:32.737Z,8.73
2023-05-15T02:37:01.873Z,8.70
2023-05-15T02:39:30.029Z,8.60
2023-05-15T02:41:57.363Z,8.45
2023-05-15T02:44:26.125Z,8.82
2023-05-15T02:46:54.082Z,9.20
2023-05-15T02:49:22.015Z,8.93
2023-05-15T02:51:48.901Z,9.43
2023-05-15T02:54:15.830Z,9.13
2023-05-15T02:56:42.812Z,9.02
2023-05-15T02:59:09.695Z,9.25
2023-05-15T03:01:36.490Z,8.80
2023-05-15T03:04:03.490Z,9.10
2023-05-15T03:06:31.647Z,9.63
2023-05-15T03:08:58.409Z,8.88
2023-05-15T03:11:25.218Z,8.85
2023-05-15T03:13:52.041Z,8.85
2023-05-15T03:16:18.850Z,9.50
2023-05-15T03:18:46.481Z,9.10
2023-05-15T03:21:13.553Z,8.98
2023-05-15T03:23:40.501Z,9.70
2023-05-15T03:26:07.359Z,9.18
2023-05-15T03:28:34.113Z,9.13
2023-05-15T03:31:00.916Z,9.60
2023-05-15T03:33:27.685Z,10.05
2023-05-15T03:35:54.421Z,9.93
2023-05-15T03:38:21.250Z,8.95
2023-05-15T03:40:50.262Z,9.95
2023-05-15T03:43:17.825Z,9.27
2023-05-15T03:45:44.582Z,11.20
2023-05-15T03:48:11.343Z,10.02
2023-05-15T03:50:39.189Z,9.38
2023-05-15T03:53:06.182Z,10.52
2023-05-15T03:55:33.175Z,11.07
2023-05-15T03:58:00.076Z,9.60
2023-05-15T04:00:27.133Z,9.68
2023-05-15T04:02:54.127Z,10.52
2023-05-15T04:05:21.995Z,9.90
2023-05-15T04:07:48.899Z,9.77
2023-05-15T04:10:15.714Z,9.75
2023-05-15T04:12:42.491Z,9.52
2023-05-15T04:15:18.392Z,10.05
2023-05-15T04:17:46.777Z,10.85
2023-05-15T04:20:15.447Z,10.23
2023-05-15T04:22:43.508Z,9.82
2023-05-15T04:25:12.025Z,11.50
2023-05-15T04:27:39.339Z,10.65
2023-05-15T04:30:07.125Z,11.90
2023-05-15T04:32:34.714Z,10.85
2023-05-15T04:35:05.694Z,10.48
2023-05-15T04:37:32.626Z,11.57
2023-05-15T04:40:00.169Z,10.38
2023-05-15T04:42:27.018Z,10.73
2023-05-15T04:44:53.917Z,10.98
2023-05-15T04:47:20.842Z,11.80
2023-05-15T04:49:50.608Z,11.27
2023-05-15T04:52:17.868Z,12.50
2023-05-15T04:54:44.611Z,12.85
2023-05-15T04:57:11.353Z,12.90
2023-05-15T04:59:38.088Z,13.52
2023-05-15T05:02:05.111Z,12.75
2023-05-15T05:04:31.949Z,12.55
2023-05-15T05:06:58.718Z,17.70
2023-05-15T05:09:25.635Z,12.73
2023-05-15T05:11:52.377Z,13.80
2023-05-15T05:14:19.647Z,13.90
2023-05-15T05:16:46.447Z,12.90
2023-05-15T05:19:13.325Z,12.15
2023-05-15T05:21:40.170Z,12.50
2023-05-15T05:24:06.956Z,12.40
2023-05-15T05:26:33.783Z,12.60
2023-05-15T05:29:00.833Z,11.52
2023-05-15T05:31:30.406Z,12.25
2023-05-15T05:33:57.266Z,12.15
2023-05-15T05:36:24.051Z,11.77
2023-05-15T05:38:51.040Z,12.57
2023-05-15T05:41:17.783Z,12.00
2023-05-15T05:43:44.570Z,12.60
2023-05-15T05:46:11.464Z,11.98
2023-05-15T05:48:38.265Z,12.68
2023-05-15T05:51:05.117Z,13.07
2023-05-15T05:53:31.943Z,13.35
2023-05-15T05:55:58.714Z,12.82
2023-05-15T05:58:26.444Z,12.55
2023-05-15T06:00:54.201Z,12.73
2023-05-15T06:03:21.526Z,12.73
2023-05-15T06:05:48.721Z,12.48
2023-05-15T06:08:15.764Z,11.18
2023-05-15T06:10:42.537Z,11.77
2023-05-15T06:13:10.483Z,12.02
2023-05-15T06:15:37.664Z,11.70
2023-05-15T06:18:04.642Z,12.10
2023-05-15T06:20:33.679Z,10.32
2023-05-15T06:23:00.572Z,9.88
2023-05-15T06:25:27.317Z,10.05
2023-05-15T06:27:54.032Z,9.63
2023-05-15T06:30:20.723Z,9.65
2023-05-15T06:32:47.566Z,9.13
2023-05-15T06:35:14.335Z,8.88
2023-05-15T06:37:41.029Z,9.60
2023-05-15T06:40:08.460Z,9.52
2023-05-15T06:42:35.539Z,9.45
2023-05-15T06:45:02.345Z,9.02
2023-05-15T06:47:29.135Z,9.85
2023-05-15T06:49:55.996Z,9.60
2023-05-15T06:52:22.853Z,9.57
2023-05-15T06:54:49.688Z,11.23
2023-05-15T06:57:16.480Z,9.68
2023-05-15T06:59:43.296Z,9.13
2023-05-15T07:02:10.134Z,9.75
2023-05-15T07:04:36.996Z,9.68
2023-05-15T07:07:03.857Z,9.10
2023-05-15T07:09:31.039Z,9.25
2023-05-15T07:11:57.836Z,8.63
2023-05-15T07:14:24.635Z,9.93
2023-05-15T07:16:51.466Z,10.50
2023-05-15T07:19:20.863Z,10.20
2023-05-15T07:21:47.889Z,9.20
2023-05-15T07:24:14.758Z,9.15
2023-05-15T07:26:50.620Z,8.77
2023-05-15T07:29:25.333Z,9.50
2023-05-15T07:31:52.228Z,8.75
2023-05-15T07:34:19.096Z,8.85
2023-05-15T07:36:45.917Z,8.57
2023-05-15T07:39:13.287Z,9.00
2023-05-15T07:41:40.149Z,8.38
2023-05-15T07:44:06.967Z,8.45
2023-05-15T07:46:34.458Z,7.93
2023-05-15T07:49:01.255Z,9.15
2023-05-15T07:51:28.028Z,8.07
2023-05-15T07:53:54.767Z,8.15
2023-05-15T07:56:21.602Z,8.95
2023-05-15T07:58:48.631Z,7.20
2023-05-15T08:01:16.066Z,7.50
2023-05-15T08:03:43.145Z,8.68
2023-05-15T08:06:09.953Z,9.57
2023-05-15T08:08:36.831Z,7.00
2023-05-15T08:11:03.623Z,7.20
2023-05-15T08:13:30.590Z,7.63
2023-05-15T08:15:57.432Z,7.53
2023-05-15T08:18:24.408Z,6.65
2023-05-15T08:20:52.231Z,6.63
2023-05-15T08:23:19.171Z,6.60
2023-05-15T08:25:46.129Z,6.70
2023-05-15T08:28:12.931Z,10.23
2023-05-15T08:30:39.790Z,6.28
2023-05-15T08:33:06.765Z,6.10
2023-05-15T08:35:33.827Z,6.72
2023-05-15T08:38:00.770Z,6.93
2023-05-15T08:43:03.660Z,6.20
2023-05-15T08:45:31.558Z,5.90
2023-05-15T08:48:00.486Z,5.85
2023-05-15T08:50:28.645Z,7.47
2023-05-15T08:52:58.390Z,6.30
2023-05-15T08:55:25.869Z,6.18
2023-05-15T08:57:54.425Z,6.95
2023-05-15T09:00:22.411Z,5.85
2023-05-15T09:02:49.317Z,6.47
2023-05-15T09:05:16.180Z,5.70
2023-05-15T09:07:44.966Z,5.85
2023-05-15T09:10:13.605Z,5.35
2023-05-15T09:12:47.129Z,6.03
2023-05-15T09:15:22.555Z,5.95
2023-05-15T09:17:50.723Z,6.50
2023-05-15T09:20:33.687Z,5.38
2023-05-15T09:23:02.927Z,6.10
2023-05-15T09:25:40.767Z,6.43
2023-05-15T09:28:10.686Z,5.80
2023-05-15T09:30:38.835Z,5.10
2023-05-15T09:33:05.791Z,5.28
2023-05-15T09:35:40.956Z,5.35
2023-05-15T09:38:12.624Z,5.22
2023-05-15T09:40:40.929Z,4.47
2023-05-15T09:43:11.704Z,5.80
2023-05-15T09:45:38.553Z,5.25
2023-05-15T09:48:06.740Z,4.70
2023-05-15T09:50:38.319Z,4.78
2023-05-15T09:53:05.992Z,5.10
2023-05-15T09:55:34.516Z,5.13
2023-05-15T09:58:09.814Z,5.38
2023-05-15T10:00:48.423Z,4.63
2023-05-15T10:03:19.058Z,5.07
2023-05-15T10:05:46.020Z,4.60
2023-05-15T10:08:13.038Z,4.75
2023-05-15T10:10:39.936Z,4.97
2023-05-15T10:13:08.263Z,4.47
2023-05-15T10:15:35.647Z,4.68
2023-05-15T10:18:04.981Z,4.38
2023-05-15T10:20:35.581Z,4.15
2023-05-15T10:23:06.317Z,4.05
2023-05-15T10:25:41.202Z,4.35
2023-05-15T10:30:36.693Z,3.95
2023-05-15T10:33:05.444Z,4.50
2023-05-15T10:35:32.905Z,4.10
2023-05-15T10:38:00.437Z,4.78
2023-05-15T10:40:29.338Z,3.95
2023-05-15T10:42:59.516Z,4.10
2023-05-15T10:45:27.070Z,4.35
2023-05-15T10:47:54.905Z,4.72
2023-05-15T10:50:21.747Z,4.63
2023-05-15T10:52:52.459Z,4.22
2023-05-15T10:55:19.514Z,4.05
2023-05-15T10:57:47.389Z,3.75
2023-05-15T11:00:24.057Z,3.63
2023-05-15T11:02:57.013Z,4.05
2023-05-15T11:05:24.621Z,4.72
2023-05-15T11:08:18.374Z,4.65
2023-05-15T11:10:45.271Z,4.38
2023-05-15T11:13:12.200Z,3.83
2023-05-15T11:15:46.948Z,4.18
2023-05-15T11:18:14.488Z,3.42
2023-05-15T11:21:02.671Z,3.92
2023-05-15T11:23:37.457Z,3.10
2023-05-15T11:26:05.969Z,3.78
2023-05-15T11:28:42.521Z,3.50
2023-05-15T11:31:09.440Z,3.58
2023-05-15T11:33:38.684Z,3.83
2023-05-15T11:36:06.960Z,3.47
2023-05-15T11:38:39.668Z,3.50
2023-05-15T11:41:18.642Z,3.75
2023-05-15T11:43:46.212Z,6.00
2023-05-15T11:46:14.067Z,3.70
2023-05-15T11:48:47.612Z,3.50
2023-05-15T11:51:21.791Z,3.40
2023-05-15T11:53:54.129Z,2.83
2023-05-15T11:56:22.971Z,2.55
2023-05-15T11:58:58.763Z,3.40
2023-05-15T12:01:26.133Z,3.22
2023-05-15T12:03:54.426Z,3.05
2023-05-15T12:06:22.045Z,3.00
2023-05-15T12:08:53.355Z,3.85
2023-05-15T12:11:24.836Z,3.35
2023-05-15T12:13:55.675Z,3.22
2023-05-15T12:16:26.608Z,3.95
2023-05-15T12:18:53.792Z,4.60
2023-05-15T12:21:20.885Z,4.95
2023-05-15T12:24:07.054Z,5.68
2023-05-15T12:26:35.050Z,5.43
2023-05-15T12:29:02.217Z,5.55
2023-05-15T12:31:29.784Z,6.53
2023-05-15T12:33:56.966Z,5.85
2023-05-15T12:36:23.716Z,5.70
2023-05-15T12:38:50.644Z,6.85
2023-05-15T12:41:19.942Z,6.20
2023-05-15T12:43:46.722Z,5.65
2023-05-15T12:46:15.459Z,5.03
2023-05-15T12:48:42.434Z,4.93
2023-05-15T12:51:09.459Z,4.97
2023-05-15T12:53:39.704Z,4.72
2023-05-15T12:56:07.726Z,5.57
2023-05-15T12:58:35.492Z,5.25
2023-05-15T13:01:03.466Z,5.15
2023-05-15T13:03:31.930Z,4.85
2023-05-15T13:05:58.964Z,5.90
2023-05-15T13:08:25.891Z,5.13
2023-05-15T13:11:00.066Z,5.55
2023-05-15T13:13:47.869Z,5.22
2023-05-15T13:16:29.454Z,6.63
2023-05-15T13:18:59.823Z,5.93
2023-05-15T13:21:26.576Z,5.70
2023-05-15T13:23:53.482Z,6.30
2023-05-15T13:26:20.772Z,5.57
2023-05-15T13:28:47.631Z,5.85
2023-05-15T13:31:14.532Z,5.90
2023-05-15T13:33:41.736Z,6.97
2023-05-15T13:36:08.996Z,6.38
2023-05-15T13:38:35.828Z,6.15
2023-05-15T13:41:03.612Z,7.30
2023-05-15T13:43:30.438Z,7.50
2023-05-15T13:45:57.223Z,7.15
2023-05-15T13:48:23.955Z,6.93
2023-05-15T13:50:51.090Z,7.32
2023-05-15T13:53:18.169Z,7.30
2023-05-15T13:55:45.825Z,7.03
2023-05-15T13:58:13.394Z,6.60
2023-05-15T14:00:42.437Z,6.78
2023-05-15T14:03:09.625Z,8.20
2023-05-15T14:05:37.236Z,7.85
2023-05-15T14:08:04.430Z,8.05
2023-05-15T14:10:31.386Z,8.93
2023-05-15T14:13:00.083Z,10.23
2023-05-15T14:15:27.618Z,10.32
2023-05-15T14:17:54.416Z,11.48
2023-05-15T14:20:21.230Z,10.85
2023-05-15T14:22:48.009Z,11.38
2023-05-15T14:25:14.840Z,10.82
2023-05-15T14:27:41.613Z,11.02
2023-05-15T14:30:09.152Z,10.80
2023-05-15T14:32:36.036Z,9.45
2023-05-15T14:35:03.109Z,8.43
2023-05-15T14:37:29.913Z,9.00
2023-05-15T14:39:56.765Z,8.55
2023-05-15T14:42:23.585Z,8.07
2023-05-15T14:44:50.728Z,8.88
2023-05-15T14:47:18.525Z,8.70
2023-05-15T14:49:45.275Z,8.35
2023-05-15T14:52:12.366Z,7.20
2023-05-15T14:54:39.979Z,7.32
2023-05-15T14:57:07.697Z,7.65
2023-05-15T14:59:34.772Z,7.78
2023-05-15T15:02:01.831Z,7.88
2023-05-15T15:04:33.930Z,7.53
2023-05-15T15:07:03.804Z,6.68
2023-05-15T15:09:30.891Z,7.30
2023-05-15T15:11:57.736Z,7.32
2023-05-15T15:14:24.496Z,7.72
2023-05-15T15:16:51.297Z,6.45
2023-05-15T15:19:20.131Z,7.65
2023-05-15T15:21:47.275Z,7.38
2023-05-15T15:24:14.130Z,7.50
2023-05-15T15:26:41.296Z,6.63
2023-05-15T15:29:08.145Z,7.22
2023-05-15T15:31:34.990Z,6.95
2023-05-15T15:34:04.415Z,6.47
2023-05-15T15:36:32.458Z,7.35
2023-05-15T15:38:59.200Z,6.72
2023-05-15T15:41:25.975Z,6.95
2023-05-15T15:43:53.736Z,6.32
2023-05-15T15:46:20.696Z,7.00
2023-05-15T15:48:48.196Z,6.30
2023-05-15T15:51:14.978Z,5.95
2023-05-15T15:53:41.763Z,6.40
2023-05-15T15:56:08.844Z,5.75
2023-05-15T15:58:35.801Z,6.45
2023-05-15T16:01:03.239Z,6.03
2023-05-15T16:03:31.060Z,5.28
2023-05-15T16:05:59.909Z,5.45
2023-05-15T16:08:27.234Z,5.88
2023-05-15T16:10:55.514Z,6.00
2023-05-15T16:13:22.391Z,6.50
2023-05-15T16:15:49.257Z,5.75
2023-05-15T16:18:16.653Z,6.20
2023-05-15T16:20:43.782Z,5.80
2023-05-15T16:23:14.091Z,5.90
2023-05-15T16:25:41.376Z,5.65
2023-05-15T16:28:09.916Z,5.80
2023-05-15T16:30:47.994Z,6.20
2023-05-15T16:33:17.460Z,6.20
2023-05-15T16:35:44.671Z,6.00
2023-05-15T16:38:11.628Z,6.25
2023-05-15T16:40:38.400Z,5.82
2023-05-15T16:43:05.694Z,6.22
2023-05-15T16:45:32.677Z,5.93
2023-05-15T16:47:59.438Z,7.32
2023-05-15T16:50:26.672Z,6.45
2023-05-15T16:52:53.699Z,6.22
2023-05-15T16:55:20.559Z,5.88
2023-05-15T16:57:47.788Z,6.25
2023-05-15T17:00:15.965Z,5.78
2023-05-15T17:02:43.815Z,6.28
2023-05-15T17:05:11.532Z,5.85
2023-05-15T17:07:39.035Z,5.53
2023-05-15T17:10:07.130Z,5.97
2023-05-15T17:12:34.811Z,6.60
2023-05-15T17:15:02.543Z,6.45
2023-05-15T17:17:29.405Z,6.97
2023-05-15T17:19:57.166Z,6.15
2023-05-15T17:22:24.336Z,6.55
2023-05-15T17:24:52.172Z,7.10
2023-05-15T17:27:19.672Z,7.65
2023-05-15T17:29:46.747Z,6.90
2023-05-15T17:32:13.902Z,7.72
2023-05-15T17:35:19.512Z,7.32
2023-05-15T17:37:46.298Z,6.90
2023-05-15T17:40:13.168Z,7.25
2023-05-15T17:42:39.986Z,6.97
2023-05-15T17:45:07.224Z,6.95
2023-05-15T17:47:34.033Z,6.60
2023-05-15T17:50:00.862Z,6.30
2023-05-15T17:52:27.746Z,6.63
2023-05-15T17:54:54.558Z,7.93
2023-05-15T17:57:21.346Z,6.78
2023-05-15T17:59:48.172Z,6.93
2023-05-15T18:02:14.988Z,6.90
2023-05-15T18:04:41.758Z,6.28
2023-05-15T18:07:08.556Z,7.22
2023-05-15T18:09:35.410Z,7.10
2023-05-15T18:12:02.202Z,7.32
2023-05-15T18:14:28.950Z,7.30
2023-05-15T18:16:56.263Z,7.45
2023-05-15T18:19:23.068Z,7.85
2023-05-15T18:21:50.286Z,6.30
2023-05-15T18:24:17.162Z,7.25
2023-05-15T18:26:44.172Z,7.82
2023-05-15T18:29:10.994Z,7.65
2023-05-15T18:31:37.771Z,7.57
2023-05-15T18:34:04.559Z,8.32
2023-05-15T18:36:31.313Z,9.95
2023-05-15T18:38:58.072Z,7.53
2023-05-15T18:41:24.803Z,7.72
2023-05-15T18:43:52.333Z,8.88
2023-05-15T18:46:19.140Z,9.13
2023-05-15T18:48:45.910Z,7.93
2023-05-15T18:51:12.732Z,9.13
2023-05-15T18:53:39.462Z,7.93
2023-05-15T18:56:06.331Z,9.13
2023-05-15T18:58:33.074Z,9.20
2023-05-15T19:01:00.168Z,8.13
2023-05-15T19:03:27.111Z,8.60
2023-05-15T19:05:53.896Z,8.18
2023-05-15T19:08:20.625Z,9.18
2023-05-15T19:10:51.099Z,8.07
2023-05-15T19:13:18.854Z,8.48
2023-05-15T19:15:52.415Z,8.48
2023-05-15T19:18:19.685Z,8.93
2023-05-15T19:20:50.484Z,8.80
2023-05-15T19:23:17.489Z,8.27
2023-05-15T19:25:45.067Z,8.48
2023-05-15T19:28:12.946Z,9.23
2023-05-15T19:30:39.726Z,8.18
2023-05-15T19:33:06.504Z,8.52
2023-05-15T19:35:35.875Z,8.27
2023-05-15T19:38:04.038Z,9.27
2023-05-15T19:40:30.747Z,8.82
2023-05-15T19:42:57.580Z,8.80
2023-05-15T19:45:24.403Z,8.80
2023-05-15T19:47:51.212Z,8.82
2023-05-15T19:50:18.669Z,10.20
2023-05-15T19:52:45.761Z,9.75
2023-05-15T19:55:12.807Z,10.40
2023-05-15T19:57:44.789Z,10.07
2023-05-15T20:00:12.522Z,10.57
2023-05-15T20:02:41.311Z,11.10
2023-05-15T20:05:08.806Z,10.63
2023-05-15T20:07:36.022Z,11.82
2023-05-15T20:10:02.805Z,10.75
2023-05-15T20:12:29.597Z,11.10
2023-05-15T20:14:56.299Z,10.35
2023-05-15T20:17:23.340Z,12.25
2023-05-15T20:19:50.901Z,10.45
2023-05-15T20:22:17.797Z,10.20
2023-05-15T20:24:45.801Z,9.95
2023-05-15T20:27:12.624Z,10.40
2023-05-15T20:29:39.394Z,11.50
2023-05-15T20:32:06.497Z,10.50
2023-05-15T20:34:34.396Z,11.10
2023-05-15T20:37:02.673Z,10.60
2023-05-15T20:39:29.409Z,11.05
2023-05-15T20:41:56.554Z,12.10
2023-05-15T20:44:23.322Z,11.10
2023-05-15T20:46:50.185Z,10.50
2023-05-15T20:49:16.939Z,11.75
2023-05-15T20:51:44.508Z,10.65
2023-05-15T20:54:11.501Z,11.55
2023-05-15T20:56:38.409Z,12.52
2023-05-15T20:59:05.166Z,13.18
2023-05-15T21:01:32.261Z,13.00
2023-05-15T21:03:59.130Z,13.27
2023-05-15T21:06:25.949Z,12.80
2023-05-15T21:08:52.849Z,14.07
2023-05-15T21:11:19.688Z,14.40
2023-05-15T21:13:46.505Z,12.30
2023-05-15T21:16:13.291Z,12.30
2023-05-15T21:18:40.146Z,12.38
2023-05-15T21:21:09.657Z,12.40
2023-05-15T21:23:36.740Z,12.55
2023-05-15T21:26:03.942Z,11.90
2023-05-15T21:28:30.837Z,11.90
2023-05-15T21:30:57.649Z,11.82
2023-05-15T21:33:24.601Z,11.38
2023-05-15T21:35:51.523Z,11.85
2023-05-15T21:38:18.693Z,10.68
2023-05-15T21:40:45.446Z,10.52
2023-05-15T21:43:12.206Z,11.30
2023-05-15T21:45:39.020Z,11.15
2023-05-15T21:48:05.979Z,11.18
2023-05-15T21:50:32.802Z,10.55
2023-05-15T21:52:59.925Z,11.38
2023-05-15T21:55:26.637Z,12.05
2023-05-15T21:57:53.390Z,11.43
2023-05-15T22:00:20.867Z,11.05
2023-05-15T22:02:47.766Z,11.88
2023-05-15T22:05:14.869Z,12.35
2023-05-15T22:07:41.847Z,12.90
2023-05-15T22:10:09.258Z,13.40
2023-05-15T22:12:36.148Z,12.40
2023-05-15T22:15:02.958Z,13.38
2023-05-15T22:17:30.474Z,13.18
2023-05-15T22:20:08.139Z,13.73
2023-05-15T22:22:35.911Z,13.85
2023-05-15T22:25:02.793Z,13.85
2023-05-15T22:27:29.698Z,13.80
2023-05-15T22:29:56.495Z,14.07
2023-05-15T22:32:23.496Z,14.02
2023-05-15T22:34:50.294Z,14.18
2023-05-15T22:37:17.012Z,13.95
2023-05-15T22:39:44.164Z,15.55
2023-05-15T22:42:11.001Z,14.93
2023-05-15T22:44:37.884Z,14.43
2023-05-15T22:47:04.949Z,14.90
2023-05-15T22:49:31.757Z,14.60
2023-05-15T22:51:58.678Z,14.65
2023-05-15T22:54:25.610Z,14.68
2023-05-15T22:56:53.632Z,14.98
2023-05-15T22:59:21.202Z,15.02
2023-05-15T23:01:49.170Z,14.98
2023-05-15T23:04:17.444Z,15.55
2023-05-15T23:06:44.502Z,14.90
2023-05-15T23:09:11.696Z,15.93
2023-05-15T23:11:38.755Z,15.60
2023-05-15T23:14:05.710Z,15.55
2023-05-15T23:16:32.613Z,16.13
2023-05-15T23:18:59.673Z,16.70
2023-05-15T23:21:28.491Z,16.83
2023-05-15T23:23:55.310Z,15.95
2023-05-15T23:26:22.103Z,16.23
2023-05-15T23:28:48.832Z,17.02
2023-05-15T23:31:15.758Z,15.82
2023-05-15T23:33:42.654Z,15.52
2023-05-15T23:36:09.483Z,17.63
2023-05-15T23:38:36.288Z,16.38
2023-05-15T23:41:03.635Z,15.27
2023-05-15T23:43:30.434Z,16.75
2023-05-15T23:45:57.221Z,16.23
2023-05-15T23:48:23.992Z,15.40
2023-05-15T23:50:52.293Z,16.20
2023-05-15T23:53:19.274Z,15.98
2023-05-15T23:55:46.086Z,15.18
2023-05-15T23:58:12.910Z,14.52
